Time;durP1;ratioP1;P1;durP2;ratioP2;P2;SDS_P1;SDS_P2;PMS_P1;PMS_P2;Temp;Humidity;BMP_temperature;BMP_pressure;BME280_temperature;BME280_humidity;BME280_pressure;Samples;Min_cycle;Max_cycle;Signal;HPM_P1;HPM_P2
2022/03/26 00:01:37;;;;;;;119.70;51.08;;;3.80;99.90;;;;;;4953796;29;20045;-80
2022/03/26 00:04:03;;;;;;;110.03;48.15;;;4.10;99.90;;;;;;4921534;29;20059;-80
2022/03/26 00:06:28;;;;;;;110.90;50.17;;;3.70;99.90;;;;;;4921857;28;20054;-79
2022/03/26 00:08:54;;;;;;;106.40;49.60;;;3.70;99.90;;;;;;4955557;28;20050;-79
2022/03/26 00:11:20;;;;;;;105.60;47.80;;;3.60;99.90;;;;;;4928253;29;20053;-79
2022/03/26 00:13:46;;;;;;;113.05;49.05;;;3.60;99.90;;;;;;4972738;28;20042;-79
2022/03/26 00:16:12;;;;;;;107.35;47.83;;;3.60;99.90;;;;;;4957504;29;20039;-79
2022/03/26 00:18:38;;;;;;;106.35;49.70;;;3.50;99.90;;;;;;4961895;28;20031;-81
2022/03/26 00:21:04;;;;;;;115.13;50.90;;;3.50;99.90;;;;;;4938872;29;20175;-81
2022/03/26 00:23:30;;;;;;;107.47;48.47;;;3.40;99.90;;;;;;4941279;29;20054;-82
2022/03/26 00:25:59;;;;;;;106.85;49.17;;;3.40;99.90;;;;;;4952199;29;20479;-81
2022/03/26 00:28:25;;;;;;;107.72;47.72;;;3.40;99.90;;;;;;4956562;29;20046;-81
2022/03/26 00:30:52;;;;;;;118.60;52.22;;;3.50;99.90;;;;;;4957207;28;20072;-81
2022/03/26 00:33:18;;;;;;;114.18;49.00;;;3.40;99.90;;;;;;4956678;29;20054;-81
2022/03/26 00:35:44;;;;;;;114.35;50.60;;;3.30;99.90;;;;;;4937570;28;20467;-81
2022/03/26 00:38:10;;;;;;;121.95;52.13;;;3.30;99.90;;;;;;4963359;28;20039;-81
2022/03/26 00:40:37;;;;;;;125.68;53.45;;;3.30;99.90;;;;;;4956240;29;20046;-81
2022/03/26 00:43:02;;;;;;;120.78;51.22;;;3.30;99.90;;;;;;4957911;28;20126;-81
2022/03/26 00:45:29;;;;;;;114.10;50.50;;;3.30;99.90;;;;;;4982596;28;20130;-81
2022/03/26 00:47:59;;;;;;;119.13;51.08;;;3.60;99.90;;;;;;4954392;29;20047;-81
2022/03/26 00:50:25;;;;;;;114.47;51.03;;;3.30;99.90;;;;;;4949219;29;20036;-81
2022/03/26 00:52:51;;;;;;;121.30;50.95;;;3.60;99.90;;;;;;4947012;29;20437;-79
2022/03/26 00:55:18;;;;;;;122.53;52.67;;;3.30;99.90;;;;;;4939324;29;20118;-79
2022/03/26 00:57:44;;;;;;;122.82;52.03;;;3.20;99.90;;;;;;4939598;29;20138;-80
2022/03/26 01:00:12;;;;;;;113.22;50.53;;;3.20;99.90;;;;;;4942095;28;20488;-79
2022/03/26 01:02:37;;;;;;;123.57;52.10;;;3.20;99.90;;;;;;4959368;28;20098;-79
2022/03/26 01:05:04;;;;;;;120.50;52.22;;;4.00;99.90;;;;;;4954931;29;20470;-79
2022/03/26 01:07:30;;;;;;;124.93;53.10;;;3.10;99.90;;;;;;4946848;28;20081;-79
2022/03/26 01:09:56;;;;;;;131.82;53.83;;;3.10;99.90;;;;;;4939284;29;20427;-81
2022/03/26 01:12:23;;;;;;;124.75;52.45;;;3.10;99.90;;;;;;4953501;29;20043;-81
2022/03/26 01:14:50;;;;;;;144.60;58.38;;;3.10;99.90;;;;;;4938911;29;20039;-81
2022/03/26 01:17:16;;;;;;;136.88;57.78;;;3.10;99.90;;;;;;4952479;29;20445;-81
2022/03/26 01:19:42;;;;;;;138.50;59.47;;;3.10;99.90;;;;;;4918122;29;20040;-81
2022/03/26 01:22:07;;;;;;;139.48;57.42;;;3.00;99.90;;;;;;4950418;28;20102;-81
2022/03/26 01:24:33;;;;;;;179.35;68.97;;;3.60;99.90;;;;;;4939119;29;20066;-80
2022/03/26 01:26:59;;;;;;;157.15;62.25;;;3.20;99.90;;;;;;4955159;29;20190;-79
2022/03/26 01:29:25;;;;;;;150.85;59.72;;;3.10;99.90;;;;;;4932164;29;20046;-80
2022/03/26 01:31:51;;;;;;;152.93;62.78;;;3.10;99.90;;;;;;4928887;29;20051;-79
2022/03/26 01:34:17;;;;;;;156.75;63.88;;;3.00;99.90;;;;;;4939146;28;20437;-80
2022/03/26 01:36:43;;;;;;;153.30;63.17;;;3.00;99.90;;;;;;4932115;29;20047;-80
2022/03/26 01:39:10;;;;;;;150.80;58.22;;;3.00;99.90;;;;;;4933355;29;20040;-80
2022/03/26 01:41:35;;;;;;;149.38;58.97;;;2.90;99.90;;;;;;4929078;29;20401;-80
2022/03/26 01:44:01;;;;;;;132.43;58.10;;;2.90;99.90;;;;;;4955260;29;20043;-79
2022/03/26 01:46:43;;;;;;;140.80;58.08;;;2.90;99.90;;;;;;4939268;28;20050;-80
2022/03/26 01:49:08;;;;;;;151.43;60.22;;;2.80;99.90;;;;;;4938464;29;20050;-79
2022/03/26 01:51:34;;;;;;;160.13;61.85;;;2.80;99.90;;;;;;4939633;28;20375;-79
2022/03/26 01:54:01;;;;;;;137.40;57.67;;;2.80;99.90;;;;;;4955130;28;20118;-80
2022/03/26 01:56:27;;;;;;;146.57;61.28;;;2.80;99.90;;;;;;4955026;28;20036;-80
2022/03/26 01:58:53;;;;;;;153.48;60.70;;;2.80;99.90;;;;;;4955901;28;20121;-80
2022/03/26 02:01:19;;;;;;;146.48;59.50;;;2.80;99.90;;;;;;4955698;29;20079;-80
2022/03/26 02:03:45;;;;;;;139.13;55.97;;;2.70;99.90;;;;;;4935573;29;20062;-80
2022/03/26 02:06:10;;;;;;;125.50;54.00;;;2.70;99.90;;;;;;4907802;29;20110;-80
2022/03/26 02:08:36;;;;;;;149.68;58.30;;;2.60;99.90;;;;;;4938710;29;20039;-79
2022/03/26 02:11:03;;;;;;;135.73;55.88;;;2.60;99.90;;;;;;4923779;29;20039;-81
2022/03/26 02:13:49;;;;;;;155.75;60.42;;;2.80;99.90;;;;;;4939754;29;20459;-82
2022/03/26 02:16:15;;;;;;;170.32;61.72;;;2.60;99.90;;;;;;4928829;29;20054;-79
2022/03/26 02:18:41;;;;;;;149.10;57.92;;;2.60;99.90;;;;;;4914100;29;20115;-79
2022/03/26 02:21:07;;;;;;;156.85;62.17;;;2.60;99.90;;;;;;4920869;29;20134;-79
2022/03/26 02:23:33;;;;;;;151.43;59.13;;;2.60;99.90;;;;;;4938665;29;20631;-79
2022/03/26 02:25:59;;;;;;;172.40;65.28;;;2.60;99.90;;;;;;4927023;28;20097;-81
2022/03/26 02:28:25;;;;;;;173.45;64.35;;;2.60;99.90;;;;;;4944918;29;20386;-81
2022/03/26 02:30:51;;;;;;;154.88;58.38;;;2.60;99.90;;;;;;4920614;29;20039;-81
2022/03/26 02:33:16;;;;;;;161.80;62.33;;;2.50;99.90;;;;;;4934727;29;20038;-81
2022/03/26 02:35:42;;;;;;;165.55;63.70;;;2.50;99.90;;;;;;4941069;29;20098;-79
2022/03/26 02:38:09;;;;;;;179.52;65.85;;;2.60;99.90;;;;;;4937066;29;20426;-79
2022/03/26 02:40:35;;;;;;;162.23;62.05;;;2.60;99.90;;;;;;4937303;29;20035;-79
2022/03/26 02:43:00;;;;;;;166.82;61.35;;;2.40;99.90;;;;;;4935624;29;20066;-79
2022/03/26 02:45:28;;;;;;;185.63;65.30;;;2.50;99.90;;;;;;4936265;29;20039;-79
2022/03/26 02:47:54;;;;;;;195.88;70.53;;;2.50;99.90;;;;;;4963267;28;20058;-81
2022/03/26 02:50:19;;;;;;;173.13;65.80;;;2.80;99.90;;;;;;4925018;29;20043;-79
2022/03/26 02:52:48;;;;;;;189.63;71.23;;;2.50;99.90;;;;;;4916185;29;20075;-79
2022/03/26 02:55:14;;;;;;;206.65;73.53;;;2.50;99.90;;;;;;4934717;29;20039;-80
2022/03/26 02:57:40;;;;;;;217.55;77.68;;;2.60;99.90;;;;;;4933341;29;20046;-79
2022/03/26 03:00:07;;;;;;;197.87;74.27;;;2.70;99.90;;;;;;4936249;29;20043;-79
2022/03/26 03:02:34;;;;;;;178.02;69.35;;;2.70;99.90;;;;;;4935375;29;20489;-80
2022/03/26 03:05:01;;;;;;;172.07;65.97;;;2.70;99.90;;;;;;4946428;29;20102;-81
2022/03/26 03:07:27;;;;;;;183.35;69.28;;;2.60;99.90;;;;;;4957790;28;20054;-81
2022/03/26 03:09:52;;;;;;;164.13;65.33;;;2.50;99.90;;;;;;4936992;28;20549;-81
2022/03/26 03:12:20;;;;;;;177.57;65.80;;;2.50;99.90;;;;;;4937750;29;20057;-81
2022/03/26 03:14:46;;;;;;;211.68;72.95;;;2.40;99.90;;;;;;4936953;29;20063;-81
2022/03/26 03:17:12;;;;;;;227.88;78.68;;;2.40;99.90;;;;;;4954405;28;20075;-81
2022/03/26 03:19:37;;;;;;;228.38;80.38;;;2.50;99.90;;;;;;4970026;28;20039;-81
2022/03/26 03:22:03;;;;;;;223.63;77.03;;;2.50;99.90;;;;;;4903711;29;20119;-79
2022/03/26 03:24:29;;;;;;;211.55;75.78;;;2.40;99.90;;;;;;4954152;29;20057;-79
2022/03/26 03:26:55;;;;;;;205.50;74.05;;;2.40;99.90;;;;;;4954676;29;20047;-79
2022/03/26 03:29:21;;;;;;;194.20;71.97;;;2.40;99.90;;;;;;4929977;29;20070;-79
2022/03/26 03:31:48;;;;;;;191.77;70.35;;;2.40;99.90;;;;;;4935572;29;20077;-79
2022/03/26 03:34:14;;;;;;;190.60;69.83;;;2.30;99.90;;;;;;4936460;29;20098;-79
2022/03/26 03:36:40;;;;;;;209.63;72.03;;;1.90;99.90;;;;;;4938309;29;20035;-79
2022/03/26 03:39:05;;;;;;;193.02;72.60;;;2.60;99.90;;;;;;4943609;29;20035;-80
2022/03/26 03:41:31;;;;;;;236.27;81.18;;;2.20;99.90;;;;;;4954600;29;20058;-80
2022/03/26 03:43:57;;;;;;;238.82;81.38;;;2.30;99.90;;;;;;4956722;28;20482;-80
2022/03/26 03:46:22;;;;;;;223.38;77.55;;;2.60;99.90;;;;;;4910337;28;20485;-80
2022/03/26 03:48:48;;;;;;;217.17;76.63;;;2.40;99.90;;;;;;4924591;29;20039;-80
2022/03/26 03:51:14;;;;;;;221.75;75.22;;;2.40;99.90;;;;;;4959900;28;20058;-80
2022/03/26 03:53:39;;;;;;;202.98;72.45;;;2.40;99.90;;;;;;4942829;29;20063;-79
2022/03/26 03:56:05;;;;;;;201.75;72.43;;;2.40;99.90;;;;;;4937976;29;20040;-81
2022/03/26 03:58:31;;;;;;;220.57;75.32;;;2.30;99.90;;;;;;4972010;28;20118;-81
2022/03/26 04:00:56;;;;;;;206.67;73.37;;;2.30;99.90;;;;;;4956444;29;20413;-80
2022/03/26 04:03:23;;;;;;;245.13;79.20;;;2.70;99.90;;;;;;4948100;29;20042;-81
2022/03/26 04:05:48;;;;;;;207.65;75.57;;;2.10;99.90;;;;;;4952404;29;20048;-81
2022/03/26 04:08:16;;;;;;;194.35;69.00;;;2.40;99.90;;;;;;4966261;28;20528;-80
2022/03/26 04:10:41;;;;;;;194.95;71.20;;;2.40;99.90;;;;;;4955177;29;20050;-81
2022/03/26 04:13:07;;;;;;;189.82;68.75;;;2.40;99.90;;;;;;4919633;29;20043;-79
2022/03/26 04:15:33;;;;;;;193.30;70.25;;;2.00;99.90;;;;;;4954856;29;20071;-80
2022/03/26 04:17:58;;;;;;;205.77;71.00;;;2.00;99.90;;;;;;4941012;29;20050;-79
2022/03/26 04:20:24;;;;;;;176.25;65.03;;;2.20;99.90;;;;;;4951801;29;20035;-79
2022/03/26 04:22:50;;;;;;;183.40;69.70;;;2.20;99.90;;;;;;4952918;29;20043;-79
2022/03/26 04:25:16;;;;;;;187.60;67.43;;;2.00;99.90;;;;;;4935544;29;20402;-79
2022/03/26 04:27:43;;;;;;;187.98;70.47;;;2.00;99.90;;;;;;4953184;29;20086;-79
2022/03/26 04:30:11;;;;;;;185.47;67.47;;;2.80;99.90;;;;;;4939806;29;20043;-79
2022/03/26 04:32:36;;;;;;;185.40;68.55;;;2.10;99.90;;;;;;4934104;29;20087;-79
2022/03/26 04:35:02;;;;;;;190.80;66.75;;;2.00;99.90;;;;;;4939598;29;20070;-79
2022/03/26 04:37:28;;;;;;;191.60;69.18;;;2.00;99.90;;;;;;4955467;29;20035;-79
2022/03/26 04:39:53;;;;;;;198.77;70.63;;;1.90;99.90;;;;;;4939628;29;20078;-79
2022/03/26 04:42:19;;;;;;;197.60;68.73;;;2.00;99.90;;;;;;4956133;29;20386;-79
2022/03/26 04:44:45;;;;;;;286.27;74.33;;;2.00;99.90;;;;;;4934352;29;20061;-79
2022/03/26 04:47:11;;;;;;;211.00;70.30;;;;;;;;;;4951426;29;20127;-79
2022/03/26 04:49:37;;;;;;;188.07;65.00;;;1.90;99.90;;;;;;4952574;29;20047;-79
2022/03/26 04:52:03;;;;;;;203.18;70.00;;;1.90;99.90;;;;;;4935926;29;20047;-79
2022/03/26 04:54:29;;;;;;;210.80;72.32;;;1.90;99.90;;;;;;4938297;29;20485;-79
2022/03/26 04:56:55;;;;;;;198.05;69.10;;;2.00;99.90;;;;;;4957682;28;20078;-81
2022/03/26 04:59:20;;;;;;;189.32;66.15;;;1.90;99.90;;;;;;4947144;28;20035;-81
2022/03/26 05:01:47;;;;;;;185.10;66.97;;;2.00;99.90;;;;;;4953521;28;20086;-79
2022/03/26 05:04:14;;;;;;;194.20;66.53;;;1.90;99.90;;;;;;4948814;29;20068;-81
2022/03/26 05:06:40;;;;;;;205.70;68.03;;;2.00;99.90;;;;;;4956538;28;20050;-81
2022/03/26 05:09:06;;;;;;;192.90;67.53;;;2.00;99.90;;;;;;4961699;28;20040;-81
2022/03/26 05:11:32;;;;;;;187.80;67.73;;;2.00;99.90;;;;;;4954457;28;20126;-81
2022/03/26 05:13:57;;;;;;;179.77;63.83;;;2.00;99.90;;;;;;4955655;28;20058;-81
2022/03/26 05:16:23;;;;;;;180.13;65.57;;;2.00;99.90;;;;;;4954188;29;20040;-80
2022/03/26 05:18:49;;;;;;;193.43;68.90;;;1.90;99.90;;;;;;4933993;29;20046;-82
2022/03/26 05:21:14;;;;;;;186.63;67.17;;;1.90;99.90;;;;;;4947489;28;20050;-82
2022/03/26 05:23:40;;;;;;;170.68;63.35;;;1.90;99.90;;;;;;4943130;29;20055;-82
2022/03/26 05:26:06;;;;;;;180.57;64.77;;;1.90;99.90;;;;;;4977822;28;20074;-82
2022/03/26 05:28:32;;;;;;;168.53;63.07;;;;;;;;;;4949848;28;20519;-82
2022/03/26 05:30:58;;;;;;;166.03;63.23;;;1.80;99.90;;;;;;4959741;28;20047;-82
2022/03/26 05:33:24;;;;;;;162.43;60.60;;;1.80;99.90;;;;;;4970198;28;20035;-82
2022/03/26 05:35:50;;;;;;;155.23;55.83;;;1.80;99.90;;;;;;4956047;29;20404;-79
2022/03/26 05:38:15;;;;;;;171.50;63.63;;;2.70;99.90;;;;;;4955388;29;20114;-79
2022/03/26 05:40:41;;;;;;;146.73;57.17;;;2.10;99.90;;;;;;4939975;29;20035;-79
2022/03/26 05:43:08;;;;;;;165.50;60.77;;;1.90;99.90;;;;;;4936746;29;20054;-79
2022/03/26 05:45:33;;;;;;;184.67;67.47;;;1.90;99.90;;;;;;4954334;29;20502;-79
2022/03/26 05:48:06;;;;;;;177.87;65.27;;;1.90;99.90;;;;;;4941808;29;20053;-80
2022/03/26 05:50:33;;;;;;;184.20;64.47;;;2.00;99.90;;;;;;4956071;29;20461;-79
2022/03/26 05:52:59;;;;;;;174.60;62.55;;;2.00;99.90;;;;;;4956321;29;20051;-82
2022/03/26 05:55:25;;;;;;;157.02;58.50;;;2.10;99.90;;;;;;4960372;28;20036;-82
2022/03/26 05:57:50;;;;;;;159.53;58.77;;;2.30;99.90;;;;;;4946641;29;20043;-82
2022/03/26 06:00:16;;;;;;;157.20;59.00;;;2.20;99.90;;;;;;4960676;28;20045;-83
2022/03/26 06:02:42;;;;;;;160.40;60.05;;;2.20;99.90;;;;;;4972288;28;20114;-83
2022/03/26 06:05:08;;;;;;;170.20;62.97;;;2.40;99.90;;;;;;4944859;28;20086;-83
2022/03/26 06:07:34;;;;;;;152.02;58.30;;;2.30;99.90;;;;;;4955570;28;20050;-83
2022/03/26 06:10:00;;;;;;;154.35;58.25;;;2.40;99.90;;;;;;4984185;28;20047;-83
2022/03/26 06:12:25;;;;;;;157.98;60.65;;;2.80;99.90;;;;;;4963193;28;20043;-83
2022/03/26 06:14:51;;;;;;;148.23;58.70;;;2.60;99.90;;;;;;4939366;29;20047;-83
2022/03/26 06:17:17;;;;;;;147.57;60.25;;;2.70;99.90;;;;;;4939571;29;20190;-82
2022/03/26 06:19:43;;;;;;;147.85;59.97;;;2.80;99.90;;;;;;4960140;28;20117;-82
2022/03/26 06:22:10;;;;;;;150.98;58.90;;;3.00;99.90;;;;;;4975578;28;20130;-82
2022/03/26 06:24:36;;;;;;;147.27;59.95;;;3.30;99.90;;;;;;4939137;29;20039;-82
2022/03/26 06:27:02;;;;;;;147.13;62.08;;;3.80;99.90;;;;;;4938628;29;20043;-82
2022/03/26 06:29:28;;;;;;;157.95;65.53;;;4.40;99.90;;;;;;4955266;29;20101;-82
2022/03/26 06:31:54;;;;;;;158.70;63.78;;;5.40;99.90;;;;;;4952808;29;20129;-81
2022/03/26 06:34:23;;;;;;;140.02;63.97;;;6.40;99.90;;;;;;4963505;28;20035;-81
2022/03/26 06:36:49;;;;;;;119.30;57.85;;;6.50;99.90;;;;;;4936563;29;20054;-82
2022/03/26 06:39:15;;;;;;;124.15;59.03;;;7.20;99.90;;;;;;4955065;28;20039;-82
2022/03/26 06:41:41;;;;;;;132.93;66.95;;;7.80;99.90;;;;;;4938237;29;20042;-82
2022/03/26 06:44:08;;;;;;;129.07;65.95;;;8.40;99.90;;;;;;4952399;28;20430;-82
2022/03/26 06:46:35;;;;;;;125.68;66.35;;;9.10;99.90;;;;;;4953942;28;20051;-82
2022/03/26 06:49:01;;;;;;;119.15;64.60;;;9.20;99.90;;;;;;4937797;29;20046;-82
2022/03/26 06:51:27;;;;;;;114.55;64.85;;;9.70;99.90;;;;;;4952798;28;20043;-84
2022/03/26 06:53:53;;;;;;;117.55;64.85;;;10.10;99.90;;;;;;4922426;29;20039;-83
2022/03/26 06:56:18;;;;;;;113.68;64.45;;;10.70;99.90;;;;;;4933898;29;20390;-82
2022/03/26 06:58:44;;;;;;;107.07;60.83;;;11.10;99.90;;;;;;4937866;29;20039;-82
2022/03/26 07:01:11;;;;;;;106.15;60.90;;;11.20;99.90;;;;;;4950746;28;20051;-82
2022/03/26 07:03:36;;;;;;;102.43;61.40;;;11.60;99.90;;;;;;4948214;29;20054;-82
2022/03/26 07:06:03;;;;;;;99.78;59.47;;;11.80;99.90;;;;;;4938411;28;20097;-82
2022/03/26 07:08:29;;;;;;;97.93;58.83;;;12.00;99.90;;;;;;4936301;29;20489;-82
2022/03/26 07:10:56;;;;;;;99.50;58.42;;;12.20;99.90;;;;;;4950601;28;20046;-82
2022/03/26 07:13:21;;;;;;;91.32;54.20;;;12.40;99.90;;;;;;4949408;29;20094;-82
2022/03/26 07:15:48;;;;;;;91.70;54.53;;;12.90;99.90;;;;;;4947066;28;20450;-82
2022/03/26 07:18:15;;;;;;;85.47;53.33;;;13.60;99.90;;;;;;4943693;28;20046;-82
2022/03/26 07:20:41;;;;;;;86.90;55.22;;;14.10;99.90;;;;;;4938367;29;20039;-82
2022/03/26 07:23:06;;;;;;;86.25;52.67;;;14.70;99.90;;;;;;4922489;29;20049;-82
2022/03/26 07:25:33;;;;;;;77.53;50.45;;;15.20;99.90;;;;;;4954391;29;20090;-83
2022/03/26 07:27:59;;;;;;;78.47;52.60;;;15.40;99.90;;;;;;4938643;29;20051;-83
2022/03/26 07:30:25;;;;;;;77.55;51.58;;;15.80;99.90;;;;;;4937073;29;20047;-83
2022/03/26 07:32:50;;;;;;;77.95;53.08;;;16.10;99.90;;;;;;4917977;29;20048;-84
2022/03/26 07:35:16;;;;;;;83.70;53.00;;;16.20;99.90;;;;;;4949551;29;20039;-84
2022/03/26 07:37:43;;;;;;;84.90;53.38;;;16.90;99.90;;;;;;4954021;28;20130;-84
2022/03/26 07:40:10;;;;;;;80.88;53.55;;;17.00;99.90;;;;;;4952850;29;20043;-84
2022/03/26 07:42:36;;;;;;;80.55;52.22;;;17.60;99.90;;;;;;4950449;28;20043;-84
2022/03/26 07:45:03;;;;;;;75.85;50.05;;;17.10;98.30;;;;;;4950045;29;20085;-84
2022/03/26 07:47:29;;;;;;;77.20;52.45;;;17.80;99.60;;;;;;4965881;28;20102;-84
2022/03/26 07:49:55;;;;;;;72.20;48.83;;;18.30;99.40;;;;;;4942360;29;20047;-84
2022/03/26 07:52:21;;;;;;;74.93;53.33;;;18.70;98.20;;;;;;4978804;28;20070;-84
2022/03/26 07:54:47;;;;;;;71.05;50.10;;;18.70;97.80;;;;;;4941035;29;20043;-85
2022/03/26 07:57:13;;;;;;;71.13;48.70;;;18.50;93.40;;;;;;4952362;29;20422;-85
2022/03/26 07:59:38;;;;;;;75.18;52.10;;;18.70;95.40;;;;;;4981574;28;20039;-85
2022/03/26 08:02:05;;;;;;;75.70;51.80;;;19.20;92.10;;;;;;4932800;29;20039;-85
2022/03/26 08:04:30;;;;;;;69.93;49.60;;;19.10;93.70;;;;;;4964441;28;20136;-85
2022/03/26 08:06:56;;;;;;;73.95;51.22;;;19.60;93.40;;;;;;4936444;29;20127;-83
2022/03/26 08:09:22;;;;;;;71.82;51.40;;;19.20;91.30;;;;;;4936603;29;20083;-83
2022/03/26 08:11:47;;;;;;;66.25;47.90;;;19.80;90.80;;;;;;4951861;28;20134;-83
2022/03/26 08:14:13;;;;;;;70.65;50.13;;;20.30;90.20;;;;;;4920439;28;20043;-84
2022/03/26 08:16:40;;;;;;;61.78;47.15;;;20.00;85.40;;;;;;4952379;29;20453;-84
2022/03/26 08:19:06;;;;;;;64.85;44.42;;;20.40;88.30;;;;;;4951270;28;20078;-85
2022/03/26 08:21:35;;;;;;;66.00;46.95;;;20.30;82.90;;;;;;4931339;28;20043;-85
2022/03/26 08:24:04;;;;;;;63.10;44.28;;;20.20;80.90;;;;;;4979104;28;20137;-85
2022/03/26 08:26:30;;;;;;;61.53;44.90;;;19.80;80.20;;;;;;4950734;28;20043;-85
2022/03/26 08:28:58;;;;;;;61.65;46.40;;;20.40;81.20;;;;;;4938509;29;20052;-85
2022/03/26 08:31:26;;;;;;;64.13;45.70;;;20.20;80.30;;;;;;4954529;28;20050;-85
2022/03/26 08:33:53;;;;;;;64.38;46.47;;;21.20;80.80;;;;;;4938297;29;20075;-85
2022/03/26 08:36:19;;;;;;;60.45;44.10;;;21.40;76.20;;;;;;4953836;29;20126;-85
2022/03/26 08:38:46;;;;;;;59.15;43.08;;;22.10;74.60;;;;;;4938404;29;20394;-85
2022/03/26 08:41:13;;;;;;;56.67;42.72;;;22.70;74.40;;;;;;4938945;28;20039;-85
2022/03/26 08:43:39;;;;;;;55.92;42.38;;;23.50;73.10;;;;;;4949777;28;20039;-85
2022/03/26 08:46:05;;;;;;;53.55;37.70;;;24.00;70.60;;;;;;4954759;28;20065;-85
2022/03/26 08:48:31;;;;;;;53.00;38.20;;;24.30;69.00;;;;;;4937467;29;20047;-85
2022/03/26 08:50:57;;;;;;;50.80;39.05;;;24.50;67.90;;;;;;4937575;29;20049;-84
2022/03/26 08:53:23;;;;;;;51.05;39.20;;;25.00;66.70;;;;;;4953820;28;20121;-85
2022/03/26 08:55:49;;;;;;;47.47;37.78;;;25.30;65.10;;;;;;4954260;28;20039;-85
2022/03/26 08:58:17;;;;;;;45.53;35.85;;;25.70;64.80;;;;;;4938908;29;20386;-86
2022/03/26 09:00:43;;;;;;;47.15;35.65;;;25.90;62.50;;;;;;4920596;29;20051;-86
2022/03/26 09:03:09;;;;;;;44.15;34.67;;;25.90;62.50;;;;;;4955938;28;20055;-86
2022/03/26 09:05:35;;;;;;;43.03;34.65;;;26.00;61.10;;;;;;4940034;29;20102;-86
2022/03/26 09:08:00;;;;;;;45.55;35.17;;;26.10;61.40;;;;;;4921926;29;20135;-86
2022/03/26 09:10:26;;;;;;;39.63;33.50;;;26.00;61.20;;;;;;4940219;29;20050;-87
2022/03/26 09:12:52;;;;;;;41.90;33.60;;;26.10;60.70;;;;;;4938550;29;20110;-81
2022/03/26 09:15:17;;;;;;;42.50;34.03;;;26.60;60.50;;;;;;4954522;28;20037;-82
2022/03/26 09:17:43;;;;;;;38.10;33.03;;;26.50;59.00;;;;;;4983794;23;20113;-83
2022/03/26 09:20:09;;;;;;;38.90;31.92;;;26.80;58.70;;;;;;4985497;28;20292;-83
2022/03/26 09:22:36;;;;;;;38.45;31.63;;;27.30;59.00;;;;;;4988810;28;20118;-84
2022/03/26 09:25:04;;;;;;;37.25;31.13;;;27.50;58.50;;;;;;4975502;28;20049;-80
2022/03/26 09:27:30;;;;;;;34.05;29.58;;;27.40;58.40;;;;;;4986371;28;20047;-83
2022/03/26 09:29:56;;;;;;;38.60;32.17;;;27.90;58.20;;;;;;4988184;28;20048;-82
2022/03/26 09:32:22;;;;;;;39.75;33.03;;;26.70;57.00;;;;;;4974430;28;20042;-82
2022/03/26 09:34:48;;;;;;;38.60;33.03;;;26.60;58.20;;;;;;4987967;28;20065;-84
2022/03/26 09:37:15;;;;;;;37.60;32.00;;;26.90;58.90;;;;;;4989151;28;20041;-83
2022/03/26 09:39:41;;;;;;;38.00;33.40;;;27.10;58.30;;;;;;4987016;28;20042;-82
2022/03/26 09:42:09;;;;;;;38.45;33.33;;;27.60;58.30;;;;;;4957491;28;20500;-83
2022/03/26 09:44:35;;;;;;;38.13;31.98;;;27.90;58.70;;;;;;4983578;28;20042;-83
2022/03/26 09:47:04;;;;;;;37.00;32.55;;;27.60;56.50;;;;;;4985948;28;20119;-83
2022/03/26 09:49:31;;;;;;;34.88;29.60;;;27.00;58.00;;;;;;4986925;28;20404;-83
2022/03/26 09:51:57;;;;;;;34.30;30.63;;;27.80;58.00;;;;;;4997943;28;20034;-82
2022/03/26 09:54:23;;;;;;;35.00;29.48;;;28.00;57.30;;;;;;4987459;28;20045;-86
2022/03/26 09:56:50;;;;;;;30.08;26.08;;;27.30;56.30;;;;;;4979992;28;20042;-86
2022/03/26 09:59:20;;;;;;;30.40;26.08;;;27.70;56.80;;;;;;4976463;28;20100;-87
2022/03/26 10:01:46;;;;;;;26.42;23.17;;;27.90;55.70;;;;;;4991929;28;20072;-85
2022/03/26 10:04:18;;;;;;;28.02;23.67;;;28.40;55.40;;;;;;4986898;28;20489;-84
2022/03/26 10:06:57;;;;;;;28.25;24.70;;;28.80;55.50;;;;;;4987858;28;20050;-84
2022/03/26 10:09:36;;;;;;;27.02;22.40;;;29.30;54.70;;;;;;4974763;28;20038;-83
2022/03/26 10:12:05;;;;;;;24.77;20.73;;;29.20;54.60;;;;;;4990201;28;20042;-84
2022/03/26 10:14:52;;;;;;;22.45;20.08;;;29.60;54.50;;;;;;4993451;28;20397;-84
2022/03/26 10:17:24;;;;;;;21.08;17.90;;;29.60;52.70;;;;;;4992534;28;20100;-84
2022/03/26 10:19:53;;;;;;;16.90;14.68;;;30.00;53.00;;;;;;4992985;28;20370;-84
2022/03/26 10:22:28;;;;;;;18.73;16.73;;;30.00;51.20;;;;;;4977228;28;20066;-85
2022/03/26 10:24:55;;;;;;;22.08;16.00;;;29.70;51.40;;;;;;4989228;28;20101;-85
2022/03/26 10:27:21;;;;;;;19.67;16.00;;;29.90;51.40;;;;;;4992604;28;20038;-88
2022/03/26 10:29:53;;;;;;;20.23;15.05;;;29.70;51.60;;;;;;4992676;28;20116;-85
2022/03/26 10:32:39;;;;;;;10.50;8.35;;;29.80;50.80;;;;;;4991858;28;20046;-85
2022/03/26 10:35:25;;;;;;;12.95;9.70;;;30.40;48.90;;;;;;4988674;28;20050;-84
2022/03/26 10:37:58;;;;;;;12.55;9.85;;;30.50;49.00;;;;;;4983334;28;20046;-84
2022/03/26 10:40:29;;;;;;;9.52;8.02;;;30.60;48.50;;;;;;4990131;28;20198;-84
2022/03/26 10:43:00;;;;;;;10.00;8.05;;;30.80;47.80;;;;;;4992978;28;20046;-84
2022/03/26 10:45:28;;;;;;;9.88;8.05;;;30.80;47.60;;;;;;4973808;28;20050;-84
2022/03/26 10:47:56;;;;;;;10.90;7.88;;;30.80;47.60;;;;;;4960608;28;20436;-84
2022/03/26 10:50:22;;;;;;;11.73;8.88;;;30.80;47.50;;;;;;4977028;28;20053;-84
2022/03/26 10:52:48;;;;;;;9.93;7.53;;;30.80;48.40;;;;;;4989801;28;20377;-83
2022/03/26 10:55:18;;;;;;;11.50;7.47;;;31.10;48.00;;;;;;4990000;28;20078;-83
2022/03/26 10:57:46;;;;;;;10.02;8.18;;;31.30;47.00;;;;;;4989657;28;20456;-83
2022/03/26 11:00:17;;;;;;;9.48;7.65;;;31.50;47.40;;;;;;4976979;28;20069;-83
2022/03/26 11:02:44;;;;;;;10.63;7.70;;;31.70;46.10;;;;;;4976744;28;20439;-83
2022/03/26 11:05:11;;;;;;;8.57;7.05;;;31.30;46.50;;;;;;4992767;28;20053;-83
2022/03/26 11:07:40;;;;;;;8.52;6.35;;;31.50;46.80;;;;;;4992643;28;20039;-83
2022/03/26 11:10:12;;;;;;;9.50;6.70;;;31.40;46.20;;;;;;4992792;28;20038;-85
2022/03/26 11:12:46;;;;;;;8.07;6.93;;;31.40;46.60;;;;;;4974009;28;20504;-85
2022/03/26 11:15:22;;;;;;;10.95;7.20;;;31.10;45.40;;;;;;4992770;28;20516;-85
2022/03/26 11:18:09;;;;;;;9.32;6.15;;;30.80;45.80;;;;;;4974414;28;20086;-85
2022/03/26 11:20:52;;;;;;;8.52;6.03;;;30.60;46.30;;;;;;4992797;28;20062;-85
2022/03/26 11:23:55;;;;;;;10.43;6.20;;;30.80;46.10;;;;;;4992637;28;20031;-85
2022/03/26 11:26:27;;;;;;;8.02;6.20;;;30.80;46.30;;;;;;4992323;28;20077;-83
2022/03/26 11:28:53;;;;;;;9.75;6.35;;;31.00;46.20;;;;;;4992928;28;20049;-83
2022/03/26 11:31:38;;;;;;;7.10;5.43;;;31.10;46.30;;;;;;4976602;28;20493;-83
2022/03/26 11:34:05;;;;;;;8.00;6.03;;;31.40;45.40;;;;;;4992523;28;20096;-83
2022/03/26 11:36:32;;;;;;;10.57;5.65;;;30.90;45.50;;;;;;4974561;28;20121;-83
2022/03/26 11:39:16;;;;;;;8.20;5.15;;;30.50;45.80;;;;;;4992633;28;20034;-83
2022/03/26 11:41:43;;;;;;;8.75;5.88;;;30.50;45.90;;;;;;4976284;28;20084;-85
2022/03/26 11:44:10;;;;;;;9.13;5.85;;;30.50;46.50;;;;;;4992447;28;20117;-84
2022/03/26 11:52:27;;;;;;;7.47;4.80;;;30.80;45.10;;;;;;4992617;28;20034;-85
2022/03/26 11:55:01;;;;;;;8.00;5.43;;;30.50;45.50;;;;;;4992370;28;20050;-85
2022/03/26 11:57:29;;;;;;;7.80;5.00;;;30.40;45.60;;;;;;4992317;28;20397;-85
2022/03/26 11:59:55;;;;;;;5.93;4.60;;;30.10;46.30;;;;;;4984072;28;20052;-85
2022/03/26 12:02:24;;;;;;;6.43;4.30;;;30.10;45.60;;;;;;4992215;28;20392;-85
2022/03/26 12:04:58;;;;;;;7.35;4.65;;;30.10;45.70;;;;;;4981475;28;20038;-85
2022/03/26 12:07:30;;;;;;;8.15;4.85;;;30.00;45.70;;;;;;4979963;28;20504;-85
2022/03/26 12:10:09;;;;;;;7.47;4.30;;;29.80;45.80;;;;;;4983087;28;20042;-85
2022/03/26 12:13:05;;;;;;;7.57;4.15;;;29.60;45.80;;;;;;4996115;28;20054;-84
2022/03/26 12:15:35;;;;;;;6.85;4.53;;;29.50;46.30;;;;;;4992138;28;20108;-84
2022/03/26 12:18:06;;;;;;;6.43;4.10;;;29.40;46.20;;;;;;4995708;28;20054;-83
2022/03/26 12:20:37;;;;;;;6.70;4.15;;;29.50;46.10;;;;;;4996084;28;20058;-83
2022/03/26 12:23:08;;;;;;;6.55;4.50;;;29.60;46.50;;;;;;4995640;28;20034;-83
2022/03/26 12:25:53;;;;;;;6.72;4.32;;;29.70;45.80;;;;;;4996128;28;20093;-83
2022/03/26 12:28:37;;;;;;;7.45;4.45;;;29.50;45.70;;;;;;4993788;28;20093;-83
2022/03/26 12:31:06;;;;;;;7.00;4.30;;;29.30;46.30;;;;;;4995806;28;20045;-83
2022/03/26 12:33:46;;;;;;;6.25;4.72;;;29.10;46.90;;;;;;4992470;28;20125;-84
2022/03/26 12:36:14;;;;;;;6.43;4.55;;;29.40;46.90;;;;;;4973103;28;20046;-84
2022/03/26 12:38:44;;;;;;;5.90;4.13;;;29.70;47.30;;;;;;4979267;28;20543;-85